Time;durP1;ratioP1;P1;durP2;ratioP2;P2;SDS_P1;SDS_P2;PMS_P1;PMS_P2;Temp;Humidity;BMP_temperature;BMP_pressure;BME280_temperature;BME280_humidity;BME280_pressure;Samples;Min_cycle;Max_cycle;Signal;HPM_P1;HPM_P2
2023/05/30 00:01:38;;;;;;;;;;;;;;;22.65;49.51;100645.71;103430;1286;75503;-82
2023/05/30 00:04:03;;;;;;;;;;;;;;;22.66;49.45;100648.04;103575;1286;61471;-83
2023/05/30 00:06:29;;;;;;;;;;;;;;;22.66;49.47;100648.21;103592;1287;61352;-83
2023/05/30 00:08:54;;;;;;;;;;;;;;;22.66;49.55;100649.46;103417;1286;61415;-83
2023/05/30 00:11:23;;;;;;;;;;;;;;;22.65;49.49;100650.02;103497;1292;61279;-84
2023/05/30 00:13:49;;;;;;;;;;;;;;;22.65;49.51;100647.55;103679;1287;75451;-84
2023/05/30 00:16:15;;;;;;;;;;;;;;;22.65;49.52;100650.39;103452;1291;61365;-83
2023/05/30 00:18:41;;;;;;;;;;;;;;;22.65;49.56;100649.17;103627;1286;61375;-83
2023/05/30 00:21:07;;;;;;;;;;;;;;;22.65;49.53;100653.49;103472;1292;61371;-83
2023/05/30 00:23:33;;;;;;;;;;;;;;;22.65;49.41;100654.02;103507;1291;61396;-83
2023/05/30 00:25:59;;;;;;;;;;;;;;;22.65;49.53;100650.27;103352;1292;62230;-83
2023/05/30 00:28:25;;;;;;;;;;;;;;;22.65;49.52;100652.59;103863;1286;61305;-83
2023/05/30 00:30:50;;;;;;;;;;;;;;;22.65;49.53;100649.88;103834;1286;62156;-81
2023/05/30 00:33:16;;;;;;;;;;;;;;;22.65;49.55;100654.89;103746;1292;71524;-82
2023/05/30 00:35:41;;;;;;;;;;;;;;;22.65;49.57;100649.70;104024;1290;62551;-82
2023/05/30 00:38:07;;;;;;;;;;;;;;;22.66;49.63;100649.29;103993;1292;61393;-82
2023/05/30 00:40:33;;;;;;;;;;;;;;;22.65;49.60;100645.02;104015;1289;61339;-82
2023/05/30 00:42:58;;;;;;;;;;;;;;;22.66;49.58;100649.23;103906;1289;61441;-82
2023/05/30 00:45:23;;;;;;;;;;;;;;;22.66;49.53;100650.33;103867;1291;72542;-83
2023/05/30 00:47:50;;;;;;;;;;;;;;;22.66;49.51;100651.19;103833;1291;61382;-82
2023/05/30 00:50:18;;;;;;;;;;;;;;;22.66;49.63;100651.53;104006;1291;62235;-82
2023/05/30 00:52:44;;;;;;;;;;;;;;;22.67;49.64;100658.17;103949;1292;61323;-83
2023/05/30 00:55:10;;;;;;;;;;;;;;;22.67;49.64;100653.27;103879;1291;72306;-83
2023/05/30 00:57:36;;;;;;;;;;;;;;;22.67;49.70;100655.45;103837;1292;61482;-82
2023/05/30 01:00:02;;;;;;;;;;;;;;;22.67;49.61;100654.54;103440;1291;61481;-83
2023/05/30 01:02:28;;;;;;;;;;;;;;;22.68;49.66;100656.84;103488;1291;61749;-82
2023/05/30 01:04:53;;;;;;;;;;;;;;;22.67;49.63;100658.28;103490;1291;61467;-82
2023/05/30 01:07:20;;;;;;;;;;;;;;;22.67;49.57;100661.36;103572;1292;61304;-82
2023/05/30 01:09:46;;;;;;;;;;;;;;;22.67;49.55;100654.40;103455;1288;75628;-82
2023/05/30 01:12:21;;;;;;;;;;;;;;;22.66;49.59;100657.65;103482;1290;61473;-82
2023/05/30 01:14:52;;;;;;;;;;;;;;;22.66;49.61;100651.92;103477;1286;61617;-83
2023/05/30 01:17:50;;;;;;;;;;;;;;;22.66;49.54;100649.24;103558;1285;73424;-83
2023/05/30 01:20:17;;;;;;;;;;;;;;;22.66;49.59;100647.81;102783;1296;75595;-83
2023/05/30 01:22:49;;;;;;;;;;;;;;;22.65;49.61;100648.07;102786;1298;62865;-83
2023/05/30 01:25:27;;;;;;;;;;;;;;;22.65;49.53;100646.98;102817;1297;61794;-83
2023/05/30 01:28:16;;;;;;;;;;;;;;;22.65;49.54;100649.52;102889;1297;73621;-83
2023/05/30 01:30:45;;;;;;;;;;;;;;;22.65;49.55;100649.17;102359;1303;75354;-83
2023/05/30 01:33:13;;;;;;;;;;;;;;;22.65;49.54;100646.30;102425;1302;61407;-83
2023/05/30 01:35:44;;;;;;;;;;;;;;;22.65;49.61;100647.58;102379;1299;61941;-83
2023/05/30 01:38:10;;;;;;;;;;;;;;;22.64;49.59;100647.79;102287;1300;72635;-83
2023/05/30 01:40:36;;;;;;;;;;;;;;;22.64;49.55;100646.71;102289;1304;61592;-82
2023/05/30 01:43:18;;;;;;;;;;;;;;;22.64;49.56;100653.34;102396;1299;61453;-83
2023/05/30 01:46:02;;;;;;;;;;;;;;;22.64;49.60;100651.95;102346;1300;61467;-83
2023/05/30 01:48:34;;;;;;;;;;;;;;;22.63;49.58;100657.89;102385;1303;71717;-82
2023/05/30 01:51:00;;;;;;;;;;;;;;;22.64;49.61;100662.35;102337;1303;75376;-82
2023/05/30 01:53:26;;;;;;;;;;;;;;;22.63;49.57;100660.95;102314;1304;61421;-83
2023/05/30 01:55:54;;;;;;;;;;;;;;;22.63;49.62;100662.40;102502;1298;62641;-83
2023/05/30 01:58:19;;;;;;;;;;;;;;;22.63;49.64;100660.42;102775;1300;61400;-83
2023/05/30 02:00:45;;;;;;;;;;;;;;;22.63;49.64;100660.61;102733;1299;61570;-83
2023/05/30 02:03:10;;;;;;;;;;;;;;;22.63;49.63;100662.77;102828;1298;61388;-83
2023/05/30 02:05:36;;;;;;;;;;;;;;;22.63;49.65;100661.35;102801;1295;61561;-83
2023/05/30 02:08:01;;;;;;;;;;;;;;;22.62;49.62;100658.88;103045;1298;62292;-83
2023/05/30 02:10:27;;;;;;;;;;;;;;;22.63;49.57;100659.73;103398;1292;61375;-83
2023/05/30 02:12:52;;;;;;;;;;;;;;;22.63;49.61;100662.42;103600;1291;61394;-83
2023/05/30 02:15:18;;;;;;;;;;;;;;;22.62;49.57;100663.20;103423;1293;61372;-83
2023/05/30 02:17:43;;;;;;;;;;;;;;;22.62;49.61;100664.27;103481;1296;61467;-83
2023/05/30 02:20:09;;;;;;;;;;;;;;;22.61;49.66;100663.42;103641;1299;61377;-83
2023/05/30 02:22:36;;;;;;;;;;;;;;;22.62;49.59;100663.05;103463;1291;73101;-83
2023/05/30 02:25:02;;;;;;;;;;;;;;;22.61;49.59;100666.31;103440;1286;61372;-83
2023/05/30 02:27:27;;;;;;;;;;;;;;;22.61;49.64;100666.30;103484;1292;62192;-83
2023/05/30 02:29:53;;;;;;;;;;;;;;;22.61;49.51;100668.27;103643;1286;61282;-83
2023/05/30 02:32:18;;;;;;;;;;;;;;;22.61;49.59;100669.36;103508;1292;62491;-82
2023/05/30 02:34:44;;;;;;;;;;;;;;;22.61;49.62;100665.80;103474;1286;61336;-83
2023/05/30 02:37:09;;;;;;;;;;;;;;;22.60;49.62;100666.19;103286;1286;74431;-83
2023/05/30 02:39:35;;;;;;;;;;;;;;;22.60;49.66;100663.89;103670;1289;62412;-83
2023/05/30 02:42:01;;;;;;;;;;;;;;;22.60;49.64;100664.40;103218;1290;61356;-82
2023/05/30 02:44:27;;;;;;;;;;;;;;;22.60;49.63;100664.61;103282;1295;61359;-84
2023/05/30 02:46:52;;;;;;;;;;;;;;;22.60;49.69;100665.85;103414;1291;61381;-83
2023/05/30 02:49:19;;;;;;;;;;;;;;;22.60;49.70;100667.64;103326;1293;62415;-83
2023/05/30 02:51:45;;;;;;;;;;;;;;;22.60;49.57;100669.98;103522;1286;62032;-83
2023/05/30 02:54:10;;;;;;;;;;;;;;;22.60;49.65;100664.63;103416;1291;62496;-83
2023/05/30 02:56:36;;;;;;;;;;;;;;;22.60;49.67;100667.84;103453;1298;61356;-83
2023/05/30 02:59:01;;;;;;;;;;;;;;;22.60;49.65;100666.23;103365;1286;62512;-82
2023/05/30 03:01:27;;;;;;;;;;;;;;;22.59;49.65;100671.08;103483;1286;61359;-83
2023/05/30 03:03:52;;;;;;;;;;;;;;;22.59;49.71;100673.26;103453;1291;61468;-84
2023/05/30 03:06:18;;;;;;;;;;;;;;;22.59;49.69;100674.67;103437;1292;62233;-84
2023/05/30 03:08:44;;;;;;;;;;;;;;;22.60;49.70;100670.73;103302;1292;61839;-83
2023/05/30 03:11:10;;;;;;;;;;;;;;;22.59;49.69;100668.21;103294;1292;62644;-83
2023/05/30 03:13:36;;;;;;;;;;;;;;;22.60;49.64;100668.90;103461;1291;61442;-83
2023/05/30 03:16:02;;;;;;;;;;;;;;;22.60;49.64;100668.04;103453;1286;61400;-83
2023/05/30 03:18:28;;;;;;;;;;;;;;;22.60;49.67;100671.97;103490;1292;62181;-83
2023/05/30 03:20:54;;;;;;;;;;;;;;;22.60;49.73;100671.95;103324;1286;61285;-83
2023/05/30 03:23:20;;;;;;;;;;;;;;;22.60;49.71;100671.80;103551;1290;73466;-83
2023/05/30 03:25:46;;;;;;;;;;;;;;;22.60;49.72;100672.11;103561;1289;61416;-83
2023/05/30 03:28:12;;;;;;;;;;;;;;;22.60;49.62;100672.65;103537;1292;61384;-83
2023/05/30 03:30:38;;;;;;;;;;;;;;;22.60;49.62;100672.84;103484;1286;62481;-83
2023/05/30 03:33:04;;;;;;;;;;;;;;;22.60;49.61;100681.05;103445;1286;61474;-83
2023/05/30 03:35:30;;;;;;;;;;;;;;;22.60;49.78;100681.98;103413;1292;61394;-83
2023/05/30 03:37:56;;;;;;;;;;;;;;;22.60;49.75;100687.90;103663;1286;61361;-83
2023/05/30 03:40:21;;;;;;;;;;;;;;;22.60;49.64;100689.86;103400;1289;61364;-83
2023/05/30 03:42:47;;;;;;;;;;;;;;;22.60;49.70;100692.90;103495;1286;61381;-82
2023/05/30 03:45:12;;;;;;;;;;;;;;;22.61;49.71;100696.46;103443;1286;61492;-83
2023/05/30 03:47:38;;;;;;;;;;;;;;;22.61;49.68;100699.33;103316;1294;61346;-83
2023/05/30 03:50:04;;;;;;;;;;;;;;;22.61;49.67;100703.97;103486;1286;62608;-83
2023/05/30 03:52:29;;;;;;;;;;;;;;;22.61;49.72;100703.47;103549;1287;61385;-83
2023/05/30 03:54:55;;;;;;;;;;;;;;;22.61;49.64;100706.85;103569;1286;72487;-83
2023/05/30 03:57:21;;;;;;;;;;;;;;;22.61;49.73;100706.32;103476;1286;61441;-83
2023/05/30 03:59:47;;;;;;;;;;;;;;;22.62;49.62;100707.17;103656;1286;61413;-82
2023/05/30 04:02:13;;;;;;;;;;;;;;;22.61;49.72;100709.52;103589;1286;61804;-82
2023/05/30 04:04:38;;;;;;;;;;;;;;;22.61;49.75;100711.67;103484;1291;61379;-82
2023/05/30 04:07:04;;;;;;;;;;;;;;;22.61;49.63;100713.13;103553;1286;61362;-83
2023/05/30 04:09:30;;;;;;;;;;;;;;;22.62;49.62;100718.46;103528;1291;62416;-83
2023/05/30 04:11:55;;;;;;;;;;;;;;;22.62;49.66;100717.35;103474;1286;61304;-83
2023/05/30 04:14:21;;;;;;;;;;;;;;;22.63;49.64;100720.38;103612;1287;61394;-83
2023/05/30 04:16:46;;;;;;;;;;;;;;;22.63;49.63;100723.73;103449;1292;62557;-83
2023/05/30 04:19:12;;;;;;;;;;;;;;;22.63;49.61;100726.23;103536;1285;61479;-83
2023/05/30 04:21:37;;;;;;;;;;;;;;;22.63;49.69;100724.79;103448;1286;62437;-82
2023/05/30 04:24:04;;;;;;;;;;;;;;;22.64;49.61;100724.39;103291;1287;61374;-82
2023/05/30 04:26:31;;;;;;;;;;;;;;;22.64;49.60;100727.77;103452;1287;62349;-83
2023/05/30 04:28:59;;;;;;;;;;;;;;;22.64;49.51;100730.83;103510;1286;72671;-84
2023/05/30 04:31:25;;;;;;;;;;;;;;;22.64;49.50;100729.96;103594;1290;74497;-83
2023/05/30 04:33:51;;;;;;;;;;;;;;;22.64;49.46;100727.63;103578;1288;61371;-83
2023/05/30 04:36:19;;;;;;;;;;;;;;;22.64;49.45;100729.95;103325;1286;61499;-83
2023/05/30 04:38:48;;;;;;;;;;;;;;;22.64;49.41;100725.67;103548;1292;73437;-83
2023/05/30 04:41:18;;;;;;;;;;;;;;;22.64;49.47;100727.07;103556;1287;74471;-83
2023/05/30 04:43:57;;;;;;;;;;;;;;;22.65;49.42;100726.29;103485;1286;61301;-83
2023/05/30 04:46:38;;;;;;;;;;;;;;;22.66;49.47;100735.36;103408;1287;61339;-83
2023/05/30 04:49:06;;;;;;;;;;;;;;;22.67;49.48;100735.32;103440;1286;61365;-83
2023/05/30 04:51:32;;;;;;;;;;;;;;;22.67;49.38;100735.98;103452;1286;61340;-83
2023/05/30 04:53:58;;;;;;;;;;;;;;;22.68;49.46;100737.70;103645;1285;61269;-83
2023/05/30 04:56:26;;;;;;;;;;;;;;;22.69;49.39;100738.54;103489;1291;61476;-83
2023/05/30 04:58:52;;;;;;;;;;;;;;;22.69;49.24;100738.67;103664;1286;64639;-84
2023/05/30 05:01:18;;;;;;;;;;;;;;;22.71;49.29;100740.35;103478;1291;61450;-82
2023/05/30 05:03:44;;;;;;;;;;;;;;;22.71;49.35;100740.14;103662;1287;62538;-83
2023/05/30 05:06:10;;;;;;;;;;;;;;;22.72;49.22;100740.97;103608;1291;62408;-82
2023/05/30 05:08:35;;;;;;;;;;;;;;;22.73;49.25;100742.73;103915;1284;61205;-82
2023/05/30 05:11:01;;;;;;;;;;;;;;;22.73;49.15;100742.88;103851;1292;61327;-82
2023/05/30 05:13:27;;;;;;;;;;;;;;;22.74;49.05;100741.30;103729;1292;61396;-82
2023/05/30 05:15:52;;;;;;;;;;;;;;;22.75;49.04;100742.15;103605;1290;61648;-83
2023/05/30 05:18:18;;;;;;;;;;;;;;;22.76;48.99;100738.84;103611;1286;61316;-83
2023/05/30 05:20:44;;;;;;;;;;;;;;;22.78;48.87;100742.34;103727;1287;62482;-83
2023/05/30 05:23:09;;;;;;;;;;;;;;;22.79;48.81;100743.89;103833;1290;61368;-83
2023/05/30 05:25:35;;;;;;;;;;;;;;;22.79;48.81;100746.16;103695;1285;61967;-83
2023/05/30 05:28:00;;;;;;;;;;;;;;;22.80;48.75;100744.28;103969;1286;61352;-83
2023/05/30 05:30:26;;;;;;;;;;;;;;;22.81;48.58;100742.05;103535;1287;62515;-83
2023/05/30 05:32:52;;;;;;;;;;;;;;;22.82;48.73;100744.09;103717;1286;61394;-83
2023/05/30 05:35:18;;;;;;;;;;;;;;;22.83;48.55;100747.59;103619;1291;61475;-83
2023/05/30 05:37:44;;;;;;;;;;;;;;;22.85;48.54;100743.91;103820;1286;61429;-82
2023/05/30 05:40:10;;;;;;;;;;;;;;;22.85;48.47;100750.18;103686;1287;61423;-83
2023/05/30 05:42:36;;;;;;;;;;;;;;;22.87;48.34;100749.14;103731;1285;62610;-83
2023/05/30 05:45:02;;;;;;;;;;;;;;;22.88;48.59;100748.66;103887;1286;61410;-83
2023/05/30 05:47:28;;;;;;;;;;;;;;;22.89;48.38;100751.30;103796;1287;62577;-82
2023/05/30 05:49:53;;;;;;;;;;;;;;;22.90;48.38;100750.31;103561;1286;61365;-82
2023/05/30 05:52:19;;;;;;;;;;;;;;;22.91;48.32;100753.08;103619;1286;61368;-83
2023/05/30 05:54:44;;;;;;;;;;;;;;;22.93;48.27;100756.02;103543;1286;61435;-83
2023/05/30 05:57:10;;;;;;;;;;;;;;;22.93;48.21;100761.55;103610;1287;61349;-84
2023/05/30 05:59:35;;;;;;;;;;;;;;;22.93;48.26;100760.45;103657;1286;62490;-83
2023/05/30 06:02:01;;;;;;;;;;;;;;;22.94;48.31;100766.46;103947;1288;61365;-83
2023/05/30 06:04:26;;;;;;;;;;;;;;;22.95;48.19;100764.44;104107;1286;61770;-83
2023/05/30 06:06:52;;;;;;;;;;;;;;;22.96;48.11;100759.52;103624;1286;61503;-83
2023/05/30 06:09:19;;;;;;;;;;;;;;;22.97;48.17;100757.85;103732;1286;62010;-83
2023/05/30 06:11:45;;;;;;;;;;;;;;;22.98;48.08;100760.10;103751;1286;62506;-83
2023/05/30 06:14:11;;;;;;;;;;;;;;;22.98;48.21;100756.29;103778;1286;61400;-83
2023/05/30 06:16:36;;;;;;;;;;;;;;;22.99;48.17;100755.66;103960;1284;61374;-83
2023/05/30 06:19:03;;;;;;;;;;;;;;;23.01;48.08;100759.00;104000;1286;61381;-83
2023/05/30 06:21:28;;;;;;;;;;;;;;;23.01;48.04;100757.35;103716;1286;75387;-83
2023/05/30 06:23:56;;;;;;;;;;;;;;;23.01;48.00;100757.67;103715;1286;61373;-84
2023/05/30 06:26:21;;;;;;;;;;;;;;;23.02;47.96;100760.11;103650;1286;61895;-84
2023/05/30 06:28:48;;;;;;;;;;;;;;;23.02;47.92;100760.46;103680;1292;61474;-84
2023/05/30 06:31:14;;;;;;;;;;;;;;;23.03;47.80;100759.48;103701;1286;61315;-84
2023/05/30 06:33:40;;;;;;;;;;;;;;;23.03;47.78;100757.88;103588;1286;62514;-85
2023/05/30 06:36:06;;;;;;;;;;;;;;;23.03;47.89;100758.58;103892;1286;61379;-83
2023/05/30 06:38:31;;;;;;;;;;;;;;;23.04;47.81;100761.73;103793;1286;61387;-82
2023/05/30 06:40:57;;;;;;;;;;;;;;;23.05;47.77;100759.20;103741;1286;61397;-83
2023/05/30 06:43:22;;;;;;;;;;;;;;;23.05;47.69;100759.73;103855;1286;61332;-83
2023/05/30 06:45:49;;;;;;;;;;;;;;;23.05;47.75;100760.80;103871;1286;61717;-83
2023/05/30 06:48:14;;;;;;;;;;;;;;;23.05;47.79;100757.58;103960;1291;61432;-83
2023/05/30 06:50:40;;;;;;;;;;;;;;;23.04;47.77;100758.33;103949;1286;61390;-83
2023/05/30 06:53:05;;;;;;;;;;;;;;;23.05;47.58;100761.15;103798;1286;61354;-83
2023/05/30 06:55:31;;;;;;;;;;;;;;;23.05;47.57;100764.91;104055;1285;61320;-83
2023/05/30 06:57:56;;;;;;;;;;;;;;;23.04;47.50;100761.00;104217;1292;61394;-82
2023/05/30 07:00:22;;;;;;;;;;;;;;;23.05;47.42;100766.90;104054;1286;61460;-83
2023/05/30 07:02:49;;;;;;;;;;;;;;;23.05;47.40;100765.63;104285;1289;60398;-82
2023/05/30 07:05:15;;;;;;;;;;;;;;;23.05;47.54;100765.44;103819;1291;61483;-83
2023/05/30 07:07:42;;;;;;;;;;;;;;;23.05;47.14;100762.91;103449;1286;716487;-83
2023/05/30 07:10:08;;;;;;;;;;;;;;;23.04;46.92;100765.30;104480;1285;61373;-82
2023/05/30 07:12:34;;;;;;;;;;;;;;;23.04;46.84;100765.19;104028;1286;61307;-82
2023/05/30 07:14:59;;;;;;;;;;;;;;;23.05;47.19;100761.52;103883;1286;61365;-82
2023/05/30 07:17:25;;;;;;;;;;;;;;;23.05;47.01;100758.97;104157;1287;61406;-82
2023/05/30 07:19:50;;;;;;;;;;;;;;;23.06;47.17;100758.38;104231;1287;61364;-83
2023/05/30 07:22:16;;;;;;;;;;;;;;;23.07;47.32;100762.61;104618;1287;61397;-82
2023/05/30 07:24:42;;;;;;;;;;;;;;;23.07;47.31;100765.29;104279;1286;61278;-83
2023/05/30 07:27:07;;;;;;;;;;;;;;;23.08;47.25;100765.52;104177;1286;61370;-82
2023/05/30 07:29:32;;;;;;;;;;;;;;;23.09;47.31;100765.66;104308;1286;61378;-82
2023/05/30 07:31:58;;;;;;;;;;;;;;;23.10;47.36;100769.73;104317;1286;62501;-82
2023/05/30 07:34:23;;;;;;;;;;;;;;;23.10;47.32;100770.56;104557;1286;61337;-82
2023/05/30 07:36:49;;;;;;;;;;;;;;;23.11;47.20;100771.59;104546;1286;61415;-82
2023/05/30 07:39:15;;;;;;;;;;;;;;;23.12;47.46;100772.11;104209;1286;61457;-82
2023/05/30 07:41:40;;;;;;;;;;;;;;;23.13;47.38;100771.33;103998;1291;61419;-82
2023/05/30 07:44:06;;;;;;;;;;;;;;;23.13;47.48;100769.50;103781;1286;63248;-82
2023/05/30 07:46:31;;;;;;;;;;;;;;;23.13;47.50;100769.86;104046;1288;61355;-82
2023/05/30 07:48:57;;;;;;;;;;;;;;;23.14;47.54;100766.23;103822;1285;61361;-82
2023/05/30 07:51:22;;;;;;;;;;;;;;;23.14;47.42;100772.34;103613;1291;61518;-82
2023/05/30 07:53:48;;;;;;;;;;;;;;;23.13;47.50;100767.70;103853;1285;62081;-82
2023/05/30 07:56:13;;;;;;;;;;;;;;;23.14;47.31;100768.21;103660;1286;61489;-82
2023/05/30 07:58:39;;;;;;;;;;;;;;;23.13;47.37;100772.17;103562;1286;61295;-82
2023/05/30 08:01:05;;;;;;;;;;;;;;;23.14;47.32;100772.16;103645;1289;61319;-82
2023/05/30 08:03:31;;;;;;;;;;;;;;;23.13;47.46;100771.29;103798;1286;61390;-82
2023/05/30 08:05:57;;;;;;;;;;;;;;;23.13;47.34;100777.77;103542;1286;62344;-82
2023/05/30 08:08:22;;;;;;;;;;;;;;;23.12;47.27;100773.86;103674;1286;61349;-82
2023/05/30 08:10:48;;;;;;;;;;;;;;;23.12;47.16;100777.09;103764;1285;61467;-81
2023/05/30 08:13:14;;;;;;;;;;;;;;;23.12;47.27;100773.69;103516;1290;72820;-82
2023/05/30 08:15:39;;;;;;;;;;;;;;;23.12;47.30;100779.27;103705;1286;61404;-82
2023/05/30 08:18:05;;;;;;;;;;;;;;;23.12;47.31;100772.45;103598;1287;62167;-82
2023/05/30 08:20:30;;;;;;;;;;;;;;;23.12;47.38;100770.45;103771;1286;61435;-82
2023/05/30 08:22:56;;;;;;;;;;;;;;;23.13;47.21;100766.66;103784;1285;61381;-82
2023/05/30 08:25:23;;;;;;;;;;;;;;;23.13;47.23;100763.77;103729;1291;64693;-82
2023/05/30 08:27:53;;;;;;;;;;;;;;;23.12;47.19;100764.51;103672;1286;75467;-82
2023/05/30 08:30:19;;;;;;;;;;;;;;;23.13;47.21;100763.27;103829;1285;61679;-82
2023/05/30 08:32:45;;;;;;;;;;;;;;;23.13;47.18;100765.58;103700;1286;61450;-82
2023/05/30 08:35:10;;;;;;;;;;;;;;;23.13;47.18;100764.33;103606;1291;61326;-82
2023/05/30 08:37:36;;;;;;;;;;;;;;;23.12;47.14;100761.66;103974;1286;62212;-82
2023/05/30 08:40:02;;;;;;;;;;;;;;;23.12;47.32;100762.37;103620;1284;61328;-82
2023/05/30 08:42:28;;;;;;;;;;;;;;;23.12;47.17;100760.77;103597;1288;61444;-82
2023/05/30 08:44:53;;;;;;;;;;;;;;;23.12;47.22;100768.33;103706;1286;61388;-82
2023/05/30 08:47:19;;;;;;;;;;;;;;;23.12;47.23;100764.55;103457;1291;61316;-82
2023/05/30 08:49:45;;;;;;;;;;;;;;;23.12;47.14;100765.46;103665;1286;61387;-82
2023/05/30 08:52:12;;;;;;;;;;;;;;;23.12;47.20;100764.55;103886;1286;61471;-82
2023/05/30 08:54:40;;;;;;;;;;;;;;;23.11;47.29;100759.05;103902;1291;61480;-82
2023/05/30 08:57:09;;;;;;;;;;;;;;;23.12;47.18;100756.84;103849;1286;73456;-82
2023/05/30 08:59:34;;;;;;;;;;;;;;;23.12;47.05;100754.16;103903;1285;75576;-82
2023/05/30 09:02:00;;;;;;;;;;;;;;;23.12;47.15;100755.73;103706;1285;61365;-81
2023/05/30 09:04:26;;;;;;;;;;;;;;;23.12;47.04;100753.39;103789;1286;61375;-81
2023/05/30 09:06:52;;;;;;;;;;;;;;;23.12;47.03;100748.75;104111;1286;61352;-82
2023/05/30 09:09:18;;;;;;;;;;;;;;;23.12;47.11;100752.73;103673;1291;61511;-81
2023/05/30 09:11:43;;;;;;;;;;;;;;;23.13;47.20;100752.84;103978;1285;62438;-81
2023/05/30 09:14:09;;;;;;;;;;;;;;;23.13;47.09;100756.77;103830;1286;61320;-82
2023/05/30 09:16:34;;;;;;;;;;;;;;;23.13;47.11;100758.20;103740;1286;62555;-82
2023/05/30 09:19:00;;;;;;;;;;;;;;;23.13;47.09;100758.02;103730;1284;61263;-81
2023/05/30 09:21:26;;;;;;;;;;;;;;;23.13;47.02;100755.86;103789;1286;61281;-82
2023/05/30 09:23:51;;;;;;;;;;;;;;;23.13;47.01;100755.48;103808;1289;61393;-82
2023/05/30 09:26:18;;;;;;;;;;;;;;;23.13;47.16;100755.30;103674;1286;62020;-82
2023/05/30 09:28:45;;;;;;;;;;;;;;;23.13;47.08;100751.35;103885;1288;61362;-82
2023/05/30 09:31:11;;;;;;;;;;;;;;;23.14;47.08;100754.21;103966;1286;64832;-83
2023/05/30 09:33:46;;;;;;;;;;;;;;;23.14;47.04;100755.11;103535;1286;62486;-82
2023/05/30 09:36:20;;;;;;;;;;;;;;;23.13;47.05;100758.91;103881;1285;61285;-82
2023/05/30 09:39:13;;;;;;;;;;;;;;;23.13;47.15;100761.79;103900;1286;61212;-82
2023/05/30 09:41:39;;;;;;;;;;;;;;;23.12;47.04;100759.53;103743;1285;72421;-82
2023/05/30 09:44:05;;;;;;;;;;;;;;;23.12;47.16;100759.34;104025;1286;61665;-82
2023/05/30 09:46:31;;;;;;;;;;;;;;;23.12;47.09;100757.38;104109;1289;61382;-82
2023/05/30 09:48:57;;;;;;;;;;;;;;;23.11;47.10;100754.37;103978;1285;62156;-82
2023/05/30 09:51:25;;;;;;;;;;;;;;;23.10;46.94;100752.48;103897;1286;61416;-81
2023/05/30 09:53:59;;;;;;;;;;;;;;;23.10;47.07;100750.89;103881;1289;62064;-83
2023/05/30 09:56:35;;;;;;;;;;;;;;;23.09;47.03;100751.45;103887;1286;62374;-82
2023/05/30 09:59:07;;;;;;;;;;;;;;;23.09;47.01;100746.08;103944;1286;61670;-82
2023/05/30 10:01:37;;;;;;;;;;;;;;;23.09;46.99;100747.16;103822;1290;73419;-82
2023/05/30 10:04:09;;;;;;;;;;;;;;;23.10;47.11;100741.37;104248;1286;66746;-82
2023/05/30 10:06:36;;;;;;;;;;;;;;;23.10;47.11;100743.89;103949;1286;61294;-82
2023/05/30 10:09:02;;;;;;;;;;;;;;;23.10;46.94;100744.06;103786;1286;61715;-82
2023/05/30 10:11:27;;;;;;;;;;;;;;;23.10;46.97;100743.52;103949;1289;61384;-82
2023/05/30 10:13:55;;;;;;;;;;;;;;;23.09;47.04;100740.49;104063;1284;75430;-82
2023/05/30 10:16:20;;;;;;;;;;;;;;;23.09;47.08;100737.60;103958;1286;61489;-82
2023/05/30 10:18:49;;;;;;;;;;;;;;;23.10;47.08;100734.20;103916;1285;61394;-82
2023/05/30 10:21:14;;;;;;;;;;;;;;;23.10;47.02;100729.16;103618;1286;61279;-83
2023/05/30 10:23:40;;;;;;;;;;;;;;;23.09;47.00;100720.41;103597;1286;63035;-82
2023/05/30 10:26:06;;;;;;;;;;;;;;;23.09;47.05;100717.54;103601;1286;61307;-82
2023/05/30 10:28:31;;;;;;;;;;;;;;;23.09;47.12;100722.18;103586;1286;61391;-80
2023/05/30 10:30:56;;;;;;;;;;;;;;;23.09;46.99;100719.36;103632;1291;61323;-83
2023/05/30 10:33:22;;;;;;;;;;;;;;;23.09;47.04;100721.85;103717;1286;72581;-82
2023/05/30 10:35:47;;;;;;;;;;;;;;;23.08;46.88;100721.01;103843;1286;61474;-83
2023/05/30 10:38:13;;;;;;;;;;;;;;;23.09;47.01;100719.55;103818;1286;61531;-83
2023/05/30 10:40:44;;;;;;;;;;;;;;;23.08;46.95;100718.35;103708;1286;62006;-83
2023/05/30 10:43:29;;;;;;;;;;;;;;;23.08;46.98;100718.16;103901;1286;72511;-83
2023/05/30 10:46:05;;;;;;;;;;;;;;;23.08;47.01;100717.27;103781;1286;74532;-83
2023/05/30 10:48:44;;;;;;;;;;;;;;;23.08;47.07;100718.02;103734;1286;61636;-82
2023/05/30 10:51:10;;;;;;;;;;;;;;;23.08;47.01;100716.54;103787;1286;61648;-83
2023/05/30 10:53:39;;;;;;;;;;;;;;;23.07;46.98;100713.73;103827;1286;62405;-83
2023/05/30 10:56:09;;;;;;;;;;;;;;;23.07;46.94;100718.06;104120;1285;75309;-83
2023/05/30 10:58:38;;;;;;;;;;;;;;;23.07;46.95;100715.35;103882;1287;61442;-83
2023/05/30 11:01:26;;;;;;;;;;;;;;;23.08;47.17;100712.81;103900;1286;62135;-83
2023/05/30 11:04:03;;;;;;;;;;;;;;;23.08;46.96;100717.27;103942;1286;72757;-83
2023/05/30 11:06:31;;;;;;;;;;;;;;;23.07;47.09;100711.91;103851;1287;75347;-83
2023/05/30 11:09:03;;;;;;;;;;;;;;;23.07;47.05;100710.16;103815;1288;61339;-83
2023/05/30 11:11:32;;;;;;;;;;;;;;;23.08;47.04;100712.62;104008;1283;61304;-83
2023/05/30 11:13:58;;;;;;;;;;;;;;;23.08;47.03;100700.06;103886;1288;72547;-82
2023/05/30 11:16:24;;;;;;;;;;;;;;;23.08;46.90;100697.35;103861;1289;61746;-83
2023/05/30 11:18:55;;;;;;;;;;;;;;;23.08;46.89;100699.16;103555;1286;62490;-83
2023/05/30 11:21:40;;;;;;;;;;;;;;;23.08;47.00;100689.98;103654;1286;61325;-83
2023/05/30 11:24:09;;;;;;;;;;;;;;;23.08;46.91;100686.42;103902;1286;72586;-83
2023/05/30 11:26:54;;;;;;;;;;;;;;;23.08;46.92;100684.40;103595;1286;75586;-83
2023/05/30 11:29:30;;;;;;;;;;;;;;;23.08;46.99;100684.02;103698;1286;61329;-83
2023/05/30 11:31:55;;;;;;;;;;;;;;;23.08;46.94;100677.23;103686;1286;61314;-83
2023/05/30 11:34:21;;;;;;;;;;;;;;;23.08;46.96;100675.43;103526;1286;61384;-83
2023/05/30 11:36:47;;;;;;;;;;;;;;;23.08;46.84;100672.58;103671;1286;61308;-83
2023/05/30 11:39:13;;;;;;;;;;;;;;;23.08;46.86;100671.65;103589;1286;61323;-82
2023/05/30 11:41:38;;;;;;;;;;;;;;;23.08;46.95;100668.27;103681;1286;62124;-82
2023/05/30 11:44:04;;;;;;;;;;;;;;;23.08;46.74;100664.34;103653;1286;61421;-82
2023/05/30 11:46:29;;;;;;;;;;;;;;;23.08;46.85;100665.73;103535;1289;61401;-82
2023/05/30 11:49:02;;;;;;;;;;;;;;;23.08;46.85;100664.30;103627;1285;62444;-82
2023/05/30 11:51:30;;;;;;;;;;;;;;;23.08;46.82;100666.27;103440;1286;61374;-82
2023/05/30 11:53:56;;;;;;;;;;;;;;;23.08;46.80;100662.33;103637;1286;61289;-82
2023/05/30 11:56:24;;;;;;;;;;;;;;;23.08;46.86;100656.75;103593;1286;61393;-82
2023/05/30 11:58:49;;;;;;;;;;;;;;;23.08;46.79;100646.89;103553;1289;65716;-82
2023/05/30 12:01:16;;;;;;;;;;;;;;;23.09;46.85;100653.84;103557;1286;62590;-82
2023/05/30 12:03:44;;;;;;;;;;;;;;;23.09;46.83;100654.20;103625;1286;61391;-83
2023/05/30 12:06:12;;;;;;;;;;;;;;;23.09;46.81;100649.88;103507;1292;73501;-83
2023/05/30 12:08:41;;;;;;;;;;;;;;;23.09;46.83;100649.30;103555;1286;75226;-83
2023/05/30 12:11:09;;;;;;;;;;;;;;;23.10;46.72;100647.50;103601;1286;61346;-83
2023/05/30 12:13:35;;;;;;;;;;;;;;;23.10;46.77;100645.15;103533;1286;62547;-83
2023/05/30 12:16:00;;;;;;;;;;;;;;;23.10;46.76;100648.00;103501;1292;61384;-83
2023/05/30 12:18:26;;;;;;;;;;;;;;;23.11;46.83;100643.83;103614;1286;62179;-83
2023/05/30 12:20:51;;;;;;;;;;;;;;;23.11;46.72;100637.89;103779;1286;61393;-83
2023/05/30 12:23:17;;;;;;;;;;;;;;;23.11;46.97;100636.82;103733;1289;61323;-81
2023/05/30 12:25:49;;;;;;;;;;;;;;;23.12;46.80;100635.51;103574;1286;61958;-82